Time;durP1;ratioP1;P1;durP2;ratioP2;P2;SDS_P1;SDS_P2;PMS_P1;PMS_P2;Temp;Humidity;BMP_temperature;BMP_pressure;BME280_temperature;BME280_humidity;BME280_pressure;Samples;Min_cycle;Max_cycle;Signal;HPM_P1;HPM_P2
2021/06/06 00:01:25;;;;;;;99.95;58.53;;;16.20;99.90;;;;;;5051923;28;20052;-74
2021/06/06 00:03:55;;;;;;;109.32;60.50;;;16.30;99.90;;;;;;5058383;28;20052;-74
2021/06/06 00:06:26;;;;;;;97.43;60.20;;;16.30;99.90;;;;;;5046433;28;20049;-74
2021/06/06 00:08:53;;;;;;;92.43;57.67;;;16.20;99.90;;;;;;5060535;28;20152;-75
2021/06/06 00:11:20;;;;;;;102.80;59.70;;;16.10;99.90;;;;;;5063204;28;20504;-74
2021/06/06 00:13:49;;;;;;;97.22;59.45;;;16.10;99.90;;;;;;5054948;28;20045;-74
2021/06/06 00:16:22;;;;;;;106.15;62.05;;;16.10;99.90;;;;;;5062468;28;20052;-74
2021/06/06 00:18:50;;;;;;;108.38;64.60;;;16.10;99.90;;;;;;5036573;28;20041;-74
2021/06/06 00:21:17;;;;;;;105.25;63.40;;;16.10;99.90;;;;;;5052074;28;20443;-74
2021/06/06 00:23:44;;;;;;;110.38;64.03;;;16.20;99.90;;;;;;5054654;28;20049;-74
2021/06/06 00:26:11;;;;;;;105.85;63.88;;;16.10;99.90;;;;;;5049646;28;20057;-74
2021/06/06 00:28:38;;;;;;;97.47;60.83;;;16.10;99.90;;;;;;5043679;28;20056;-74
2021/06/06 00:31:08;;;;;;;107.03;60.47;;;16.10;99.90;;;;;;5050117;28;20055;-74
2021/06/06 00:33:36;;;;;;;104.47;61.33;;;16.20;99.90;;;;;;5043114;28;20670;-74
2021/06/06 00:36:05;;;;;;;106.18;62.47;;;16.30;99.90;;;;;;5035818;28;20045;-74
2021/06/06 00:38:33;;;;;;;112.93;64.80;;;16.30;99.90;;;;;;5040169;28;20041;-74
2021/06/06 00:41:01;;;;;;;106.88;63.67;;;16.30;99.90;;;;;;5064024;28;20053;-74
2021/06/06 00:43:28;;;;;;;115.70;67.88;;;16.20;99.90;;;;;;5064304;28;20143;-74
2021/06/06 00:45:57;;;;;;;104.65;63.35;;;16.10;99.90;;;;;;5044476;28;20032;-74
2021/06/06 00:48:25;;;;;;;117.93;65.88;;;16.20;99.90;;;;;;5054192;28;20060;-74
2021/06/06 00:51:15;;;;;;;116.50;66.35;;;16.20;99.90;;;;;;5060318;28;20617;-74
2021/06/06 00:53:49;;;;;;;124.88;69.07;;;16.20;99.90;;;;;;5055195;28;20059;-74
2021/06/06 00:56:22;;;;;;;132.55;68.63;;;16.10;99.90;;;;;;5062054;28;20135;-74
2021/06/06 00:58:52;;;;;;;144.40;71.78;;;16.00;99.90;;;;;;5063474;28;20061;-74
2021/06/06 01:01:25;;;;;;;150.68;72.18;;;15.90;99.90;;;;;;5050793;28;20049;-74
2021/06/06 01:03:55;;;;;;;159.13;73.40;;;15.80;99.90;;;;;;5033786;28;20102;-74
2021/06/06 01:06:30;;;;;;;167.48;74.38;;;15.80;99.90;;;;;;5048018;28;20041;-74
2021/06/06 01:08:59;;;;;;;155.80;73.80;;;15.70;99.90;;;;;;5057248;28;20041;-74
2021/06/06 01:11:55;;;;;;;175.68;79.90;;;15.60;99.90;;;;;;5065994;28;20094;-74
2021/06/06 01:14:27;;;;;;;183.88;77.03;;;15.60;99.90;;;;;;5055960;28;20037;-74
2021/06/06 01:17:19;;;;;;;168.52;72.28;;;15.70;99.90;;;;;;5056652;28;20491;-74
2021/06/06 01:20:06;;;;;;;182.07;78.22;;;15.50;99.90;;;;;;5047506;28;20053;-74
2021/06/06 01:22:55;;;;;;;196.48;80.63;;;15.50;99.90;;;;;;5055343;28;20041;-74
2021/06/06 01:25:46;;;;;;;212.43;84.40;;;15.50;99.90;;;;;;5063305;28;20061;-74
2021/06/06 01:28:22;;;;;;;209.45;83.20;;;15.60;99.90;;;;;;5045923;28;20049;-75
2021/06/06 01:30:56;;;;;;;209.90;83.35;;;15.60;99.90;;;;;;5044317;28;20084;-74
2021/06/06 01:33:29;;;;;;;211.63;88.22;;;15.50;99.90;;;;;;5035151;28;20060;-74
2021/06/06 01:36:08;;;;;;;225.35;91.25;;;15.40;99.90;;;;;;5018113;28;20431;-74
2021/06/06 01:38:41;;;;;;;218.55;86.82;;;15.40;99.90;;;;;;5040495;28;20060;-74
2021/06/06 01:41:12;;;;;;;215.02;89.25;;;15.40;99.90;;;;;;5046035;28;20086;-75
2021/06/06 01:43:48;;;;;;;251.52;89.38;;;15.30;99.90;;;;;;5046142;28;20060;-74
2021/06/06 01:46:31;;;;;;;218.30;83.60;;;15.40;99.90;;;;;;5044164;28;20134;-75
2021/06/06 01:48:58;;;;;;;211.52;86.20;;;15.40;99.90;;;;;;5036819;28;20124;-75
2021/06/06 01:51:31;;;;;;;231.45;86.47;;;15.40;99.90;;;;;;5043828;28;20037;-74
2021/06/06 01:53:58;;;;;;;204.60;82.03;;;15.40;99.90;;;;;;5029036;28;20765;-75
2021/06/06 01:56:30;;;;;;;200.35;85.13;;;15.40;99.90;;;;;;5028224;28;20052;-74
2021/06/06 01:59:03;;;;;;;178.77;77.15;;;15.30;99.90;;;;;;5028895;28;20557;-74
2021/06/06 02:01:39;;;;;;;203.38;81.00;;;15.40;99.90;;;;;;5044576;28;20733;-74
2021/06/06 02:04:07;;;;;;;231.57;83.32;;;15.30;99.90;;;;;;5058606;28;20049;-74
2021/06/06 02:06:49;;;;;;;205.95;81.03;;;15.40;99.90;;;;;;5039350;28;20115;-75
2021/06/06 02:09:27;;;;;;;195.70;80.32;;;15.40;99.90;;;;;;5034340;28;20060;-74
2021/06/06 02:12:08;;;;;;;;;;;15.40;99.90;;;;;;5037176;28;20055;-74
2021/06/06 02:14:50;;;;;;;217.93;81.85;;;15.40;99.90;;;;;;5045911;28;20438;-74
2021/06/06 02:17:30;;;;;;;197.60;75.03;;;15.50;99.90;;;;;;5035459;28;20059;-75
2021/06/06 02:20:15;;;;;;;194.65;75.80;;;15.50;99.90;;;;;;5044400;28;20542;-74
2021/06/06 02:22:46;;;;;;;225.82;82.40;;;15.40;99.90;;;;;;5052886;28;20045;-75
2021/06/06 02:25:16;;;;;;;239.45;81.88;;;15.30;99.90;;;;;;5049117;28;20067;-74
2021/06/06 02:28:16;;;;;;;227.07;77.45;;;15.30;99.90;;;;;;5040371;28;20128;-74
2021/06/06 02:31:07;;;;;;;250.20;81.28;;;15.30;99.90;;;;;;5014830;28;20064;-74
2021/06/06 02:34:06;;;;;;;278.38;86.32;;;15.20;99.90;;;;;;5036960;28;20053;-75
2021/06/06 02:36:39;;;;;;;229.27;79.72;;;15.20;99.90;;;;;;5019190;28;20092;-75
2021/06/06 02:39:17;;;;;;;267.00;86.80;;;15.20;99.90;;;;;;5038019;28;20069;-75
2021/06/06 02:42:04;;;;;;;299.05;89.65;;;15.20;99.90;;;;;;5043429;28;20064;-75
2021/06/06 02:44:53;;;;;;;295.13;89.28;;;15.30;99.90;;;;;;5046029;28;20529;-74
2021/06/06 02:47:26;;;;;;;260.45;83.57;;;15.20;99.90;;;;;;5037416;28;20041;-74
2021/06/06 02:50:08;;;;;;;175.80;70.60;;;15.20;99.90;;;;;;5036283;28;20061;-74
2021/06/06 02:52:41;;;;;;;135.13;60.65;;;15.20;99.90;;;;;;5050410;28;20045;-74
2021/06/06 02:55:27;;;;;;;140.75;61.55;;;15.20;99.90;;;;;;5025964;28;20044;-74
2021/06/06 02:58:10;;;;;;;139.35;62.05;;;15.20;99.90;;;;;;5046280;28;20211;-74
2021/06/06 03:00:45;;;;;;;146.45;63.22;;;15.10;99.90;;;;;;5039241;28;20562;-75
2021/06/06 03:03:19;;;;;;;180.13;67.43;;;15.10;99.90;;;;;;5029427;28;20399;-75
2021/06/06 03:05:48;;;;;;;156.07;64.18;;;15.20;99.90;;;;;;5033482;28;20049;-74
2021/06/06 03:08:19;;;;;;;173.38;63.45;;;15.20;99.90;;;;;;5037895;28;20483;-74
2021/06/06 03:10:51;;;;;;;136.68;59.03;;;15.10;99.90;;;;;;5026689;28;20594;-75
2021/06/06 03:13:34;;;;;;;166.02;63.35;;;15.20;99.90;;;;;;5036822;28;20049;-74
2021/06/06 03:16:03;;;;;;;210.63;71.30;;;15.10;99.90;;;;;;5027066;28;20172;-74
2021/06/06 03:18:43;;;;;;;189.68;70.22;;;15.10;99.90;;;;;;5034411;28;20059;-74
2021/06/06 03:21:18;;;;;;;182.05;68.93;;;15.10;99.90;;;;;;5051108;28;20067;-73
2021/06/06 03:23:50;;;;;;;;;;;15.00;99.90;;;;;;5062885;28;20079;-74
2021/06/06 03:26:17;;;;;;;186.20;67.80;;;15.10;99.90;;;;;;5059988;28;19920;-73
2021/06/06 03:28:53;;;;;;;177.48;69.85;;;15.00;99.90;;;;;;5061219;28;20136;-74
2021/06/06 03:31:28;;;;;;;185.52;68.88;;;15.00;99.90;;;;;;5034869;28;20074;-73
2021/06/06 03:34:00;;;;;;;204.43;71.32;;;14.90;99.90;;;;;;5060874;28;20084;-74
2021/06/06 03:36:41;;;;;;;175.55;66.63;;;14.90;99.90;;;;;;5052601;28;20055;-74
2021/06/06 03:39:15;;;;;;;197.82;67.65;;;14.90;99.90;;;;;;5045144;28;20076;-73
2021/06/06 03:41:43;;;;;;;146.90;60.38;;;14.90;99.90;;;;;;5056479;28;20052;-74
2021/06/06 03:44:11;;;;;;;159.77;63.92;;;14.90;99.90;;;;;;5047371;28;20048;-74
2021/06/06 03:46:39;;;;;;;175.48;66.28;;;14.80;99.90;;;;;;5062727;28;20506;-74
2021/06/06 03:49:09;;;;;;;194.48;69.07;;;14.80;99.90;;;;;;5056149;28;20139;-73
2021/06/06 03:51:37;;;;;;;193.90;67.35;;;14.90;99.90;;;;;;5063587;28;20560;-74
2021/06/06 03:54:10;;;;;;;178.27;66.38;;;14.90;99.90;;;;;;5039065;28;20094;-74
2021/06/06 03:56:41;;;;;;;151.57;58.28;;;15.00;99.90;;;;;;5064724;28;20482;-75
2021/06/06 03:59:12;;;;;;;143.07;58.30;;;14.90;99.90;;;;;;5046203;28;20076;-75
2021/06/06 04:01:42;;;;;;;122.93;57.30;;;14.80;99.90;;;;;;5049429;28;20053;-74
2021/06/06 04:04:10;;;;;;;124.40;56.90;;;14.80;99.90;;;;;;5037206;28;20522;-74
2021/06/06 04:06:37;;;;;;;139.23;62.38;;;14.70;99.90;;;;;;5036625;28;20075;-75
2021/06/06 04:09:07;;;;;;;127.50;59.85;;;14.70;99.90;;;;;;5027053;28;20553;-75
2021/06/06 04:11:35;;;;;;;129.15;60.08;;;14.70;99.90;;;;;;5039229;28;20044;-75
2021/06/06 04:14:08;;;;;;;134.95;62.72;;;14.80;99.90;;;;;;5036348;28;20053;-75
2021/06/06 04:16:39;;;;;;;130.65;61.25;;;14.70;99.90;;;;;;5041865;28;20087;-75
2021/06/06 04:19:10;;;;;;;138.00;64.45;;;14.70;99.90;;;;;;5030777;28;20077;-75
2021/06/06 04:21:38;;;;;;;171.05;68.90;;;14.70;99.90;;;;;;5033842;28;20049;-75
2021/06/06 04:24:05;;;;;;;166.60;70.32;;;14.70;99.90;;;;;;5030742;28;20045;-75
2021/06/06 04:26:32;;;;;;;209.60;74.93;;;14.70;99.90;;;;;;5027784;28;20107;-75
2021/06/06 04:29:00;;;;;;;238.90;79.15;;;14.70;99.90;;;;;;5032925;28;20708;-76
2021/06/06 04:31:31;;;;;;;214.73;77.25;;;14.70;99.90;;;;;;5025261;28;20122;-75
2021/06/06 04:34:05;;;;;;;301.33;85.72;;;14.70;99.90;;;;;;5042503;28;20061;-75
2021/06/06 04:36:34;;;;;;;424.10;96.95;;;14.80;99.90;;;;;;5011345;28;20076;-74
2021/06/06 04:39:04;;;;;;;391.23;93.05;;;14.70;99.90;;;;;;5031113;28;20533;-75
2021/06/06 04:41:36;;;;;;;464.67;98.93;;;14.60;99.90;;;;;;5042522;28;20060;-76
2021/06/06 04:44:03;;;;;;;445.67;98.38;;;14.70;99.90;;;;;;5043560;28;20240;-76
2021/06/06 04:46:34;;;;;;;538.38;106.85;;;14.60;99.90;;;;;;5024093;28;20072;-75
2021/06/06 04:49:01;;;;;;;555.92;101.65;;;14.70;99.90;;;;;;5023132;28;20077;-75
2021/06/06 04:51:29;;;;;;;677.80;118.68;;;14.70;99.90;;;;;;5030886;28;20576;-75
2021/06/06 04:54:03;;;;;;;553.92;106.40;;;14.70;99.90;;;;;;5037217;28;20140;-76
2021/06/06 04:56:33;;;;;;;377.42;95.75;;;14.60;99.90;;;;;;5042286;28;20053;-76
2021/06/06 04:59:02;;;;;;;193.52;77.45;;;14.50;99.90;;;;;;5042157;28;20057;-75
2021/06/06 05:01:31;;;;;;;105.57;60.63;;;14.60;99.90;;;;;;5041033;28;20044;-75
2021/06/06 05:04:03;;;;;;;104.20;60.40;;;14.50;99.90;;;;;;5039527;28;20041;-75
2021/06/06 05:06:31;;;;;;;116.95;63.42;;;14.40;99.90;;;;;;5041527;28;20043;-75
2021/06/06 05:09:04;;;;;;;112.70;61.95;;;14.50;99.90;;;;;;5045947;28;20294;-75
2021/06/06 05:11:33;;;;;;;118.45;61.08;;;14.40;99.90;;;;;;5031550;28;20041;-74
2021/06/06 05:14:00;;;;;;;126.88;64.50;;;14.40;99.90;;;;;;5045148;28;20680;-75
2021/06/06 05:16:27;;;;;;;114.53;61.85;;;14.50;99.90;;;;;;5035591;28;20099;-74
2021/06/06 05:18:58;;;;;;;115.43;66.25;;;14.50;99.90;;;;;;5038456;28;20053;-76
2021/06/06 05:21:25;;;;;;;109.32;61.30;;;14.40;99.90;;;;;;5020175;28;20049;-75
2021/06/06 05:23:54;;;;;;;115.38;61.38;;;14.30;99.90;;;;;;5031998;28;20467;-75
2021/06/06 05:26:20;;;;;;;134.10;66.70;;;14.30;99.90;;;;;;5012451;28;20444;-75
2021/06/06 05:28:47;;;;;;;118.47;63.67;;;14.30;99.90;;;;;;5042924;28;20053;-76
2021/06/06 05:31:16;;;;;;;127.40;65.07;;;14.10;99.90;;;;;;5042960;28;20041;-75
2021/06/06 05:33:44;;;;;;;120.65;61.83;;;14.20;99.90;;;;;;5042227;28;20053;-76
2021/06/06 05:36:11;;;;;;;127.75;64.22;;;14.20;99.90;;;;;;5034498;28;20049;-75
2021/06/06 05:38:38;;;;;;;138.93;67.07;;;14.30;99.90;;;;;;5021075;28;20056;-75
2021/06/06 05:41:07;;;;;;;150.32;69.82;;;14.30;99.90;;;;;;5043293;28;20130;-76
2021/06/06 05:43:37;;;;;;;159.55;72.57;;;14.40;99.90;;;;;;5025838;28;20049;-75
2021/06/06 05:46:13;;;;;;;136.95;67.50;;;14.40;99.90;;;;;;5024206;28;20429;-75
2021/06/06 05:48:42;;;;;;;147.50;68.63;;;14.40;99.90;;;;;;5034275;28;20045;-74
2021/06/06 05:51:09;;;;;;;137.95;69.30;;;14.40;99.90;;;;;;5030151;28;20045;-73
2021/06/06 05:53:43;;;;;;;155.35;70.88;;;14.40;99.90;;;;;;5038462;28;20033;-76
2021/06/06 05:56:10;;;;;;;144.32;67.05;;;14.40;99.90;;;;;;5046052;28;20056;-76
2021/06/06 05:58:39;;;;;;;155.30;70.78;;;14.40;99.90;;;;;;5045309;28;20049;-75
2021/06/06 06:01:07;;;;;;;136.82;67.45;;;14.40;99.90;;;;;;5045769;28;20308;-74
2021/06/06 06:03:35;;;;;;;133.48;65.35;;;14.20;99.90;;;;;;5036746;28;20037;-75
2021/06/06 06:06:03;;;;;;;134.35;65.50;;;14.20;99.90;;;;;;5035060;28;20433;-74
2021/06/06 06:08:36;;;;;;;165.93;73.10;;;14.20;99.90;;;;;;5038727;28;20075;-74
2021/06/06 06:11:09;;;;;;;156.85;70.93;;;14.20;99.90;;;;;;5039729;28;20051;-75
2021/06/06 06:13:36;;;;;;;289.63;87.88;;;14.30;99.90;;;;;;5055921;28;20411;-74
2021/06/06 06:16:06;;;;;;;411.10;94.82;;;14.30;99.90;;;;;;5031884;28;20159;-74
2021/06/06 06:18:34;;;;;;;436.08;101.80;;;14.20;99.90;;;;;;5054087;28;20403;-75
2021/06/06 06:21:01;;;;;;;336.30;93.97;;;14.10;99.90;;;;;;5064779;28;20068;-75
2021/06/06 06:23:29;;;;;;;335.33;93.20;;;14.10;99.90;;;;;;5034038;28;20060;-75
2021/06/06 06:25:56;;;;;;;155.48;69.22;;;14.10;99.90;;;;;;5065665;28;20052;-74
2021/06/06 06:28:23;;;;;;;138.45;64.10;;;14.10;99.90;;;;;;5067336;28;20052;-75
2021/06/06 06:31:09;;;;;;;136.95;65.40;;;14.20;99.90;;;;;;5064493;28;20044;-74
2021/06/06 06:33:49;;;;;;;128.85;64.53;;;14.10;99.90;;;;;;5044373;28;20048;-75
2021/06/06 06:36:17;;;;;;;163.40;70.82;;;14.20;99.90;;;;;;5059401;28;20051;-75
2021/06/06 06:38:47;;;;;;;160.23;71.70;;;14.20;99.90;;;;;;5054502;28;20572;-74
2021/06/06 06:41:14;;;;;;;164.88;70.88;;;14.20;99.90;;;;;;5053170;28;20534;-74
2021/06/06 06:43:40;;;;;;;164.95;71.88;;;14.10;99.90;;;;;;5067987;28;20071;-74
2021/06/06 06:46:07;;;;;;;188.35;75.82;;;14.20;99.90;;;;;;5066455;28;20067;-75
2021/06/06 06:48:34;;;;;;;170.85;71.72;;;14.20;99.90;;;;;;5058881;28;20052;-74
2021/06/06 06:51:01;;;;;;;152.05;68.20;;;14.20;99.90;;;;;;5062624;28;20152;-74
2021/06/06 06:53:28;;;;;;;153.02;69.40;;;14.20;99.90;;;;;;5051038;28;20659;-75
2021/06/06 06:55:54;;;;;;;151.25;66.88;;;14.20;99.90;;;;;;5059170;28;20059;-75
2021/06/06 06:58:22;;;;;;;177.00;70.22;;;14.20;99.90;;;;;;5068324;28;20052;-73
2021/06/06 07:00:51;;;;;;;128.95;60.35;;;14.30;99.90;;;;;;5069353;28;20048;-75
2021/06/06 07:03:22;;;;;;;135.02;63.80;;;14.20;99.90;;;;;;5069686;28;20045;-73
2021/06/06 07:05:50;;;;;;;141.88;63.97;;;14.30;99.90;;;;;;5073187;28;20045;-73
2021/06/06 07:08:20;;;;;;;168.45;66.57;;;14.30;99.90;;;;;;5076139;28;20040;-73
2021/06/06 07:10:47;;;;;;;225.60;76.53;;;14.40;99.90;;;;;;5064109;28;20036;-74
2021/06/06 07:13:14;;;;;;;363.50;92.20;;;14.40;99.90;;;;;;5067372;28;20046;-73
2021/06/06 07:15:41;;;;;;;339.27;97.55;;;14.40;99.90;;;;;;5056422;28;20732;-74
2021/06/06 07:18:10;;;;;;;392.65;99.85;;;14.40;99.90;;;;;;5057101;28;20130;-73
2021/06/06 07:20:38;;;;;;;432.70;99.90;;;14.50;99.90;;;;;;5050365;28;20041;-74
2021/06/06 07:23:09;;;;;;;416.83;102.25;;;14.40;99.90;;;;;;5041176;28;20040;-74
2021/06/06 07:25:36;;;;;;;480.50;106.72;;;14.40;99.90;;;;;;5044231;28;20056;-74
2021/06/06 07:28:04;;;;;;;284.70;85.45;;;14.40;99.90;;;;;;5046128;28;20134;-75
2021/06/06 07:30:43;;;;;;;310.80;82.25;;;14.50;99.90;;;;;;5012737;28;20785;-75
2021/06/06 07:33:10;;;;;;;282.83;81.38;;;14.30;99.90;;;;;;5048768;28;20053;-74
2021/06/06 07:35:37;;;;;;;277.20;80.13;;;14.30;99.90;;;;;;5058114;28;20048;-74
2021/06/06 07:38:05;;;;;;;211.55;72.35;;;14.30;99.90;;;;;;5038231;28;20048;-75
2021/06/06 07:40:40;;;;;;;217.32;73.97;;;14.20;99.90;;;;;;5047803;28;20350;-75
2021/06/06 07:43:08;;;;;;;210.23;70.65;;;14.30;99.90;;;;;;5063636;28;20378;-73
2021/06/06 07:45:36;;;;;;;194.30;71.03;;;14.20;99.90;;;;;;5029081;28;20045;-73
2021/06/06 07:48:04;;;;;;;227.93;72.38;;;14.30;99.90;;;;;;5052453;28;20328;-73
2021/06/06 07:50:33;;;;;;;218.63;73.55;;;14.30;99.90;;;;;;5045768;28;20084;-74
2021/06/06 07:53:00;;;;;;;186.63;69.10;;;14.30;99.90;;;;;;5046164;28;20135;-74
2021/06/06 07:55:28;;;;;;;133.23;60.50;;;14.30;99.90;;;;;;5046579;28;20029;-74
2021/06/06 07:57:56;;;;;;;150.43;61.30;;;14.40;99.90;;;;;;5043819;28;20053;-75
2021/06/06 08:00:37;;;;;;;136.75;57.05;;;14.50;99.90;;;;;;5044689;28;20099;-75
2021/06/06 08:03:05;;;;;;;185.70;66.38;;;14.50;99.90;;;;;;5053889;28;20414;-76
2021/06/06 08:05:34;;;;;;;152.98;63.83;;;14.60;99.90;;;;;;5060190;28;20044;-75
2021/06/06 08:08:02;;;;;;;151.73;61.00;;;14.60;99.90;;;;;;5068083;28;20065;-76
2021/06/06 08:10:31;;;;;;;249.07;69.93;;;14.70;99.90;;;;;;5044753;28;20204;-76
2021/06/06 08:12:58;;;;;;;166.75;62.38;;;14.70;99.90;;;;;;5052610;28;20076;-75
2021/06/06 08:15:25;;;;;;;157.57;61.75;;;14.70;99.90;;;;;;5049220;28;20056;-74
2021/06/06 08:17:52;;;;;;;150.38;60.10;;;14.70;99.90;;;;;;5042011;28;20547;-75
2021/06/06 08:20:23;;;;;;;165.27;62.22;;;14.70;99.90;;;;;;5044613;28;20122;-75
2021/06/06 08:22:50;;;;;;;138.25;52.70;;;14.60;99.90;;;;;;5057017;28;20059;-75
2021/06/06 08:25:18;;;;;;;128.02;53.80;;;14.60;99.90;;;;;;5040066;28;20041;-75
2021/06/06 08:27:48;;;;;;;108.97;49.28;;;14.60;99.90;;;;;;5044491;28;20045;-76
2021/06/06 08:30:23;;;;;;;100.35;49.85;;;14.60;99.90;;;;;;5043818;28;20056;-76
2021/06/06 08:32:50;;;;;;;;;;;14.60;99.90;;;;;;5057479;28;20037;-75
2021/06/06 08:35:18;;;;;;;104.28;50.00;;;14.70;99.90;;;;;;5050156;28;20541;-75
2021/06/06 08:37:45;;;;;;;111.47;51.20;;;14.70;99.90;;;;;;5058316;28;20499;-75
2021/06/06 08:40:17;;;;;;;115.28;54.88;;;14.80;99.90;;;;;;5062865;28;20064;-75
2021/06/06 08:42:46;;;;;;;118.60;54.00;;;14.80;99.90;;;;;;5062907;28;20629;-73
2021/06/06 08:45:37;;;;;;;104.70;51.42;;;14.80;99.90;;;;;;5059002;28;20040;-73
2021/06/06 08:48:08;;;;;;;101.68;50.55;;;14.80;99.90;;;;;;5051160;28;20041;-74
2021/06/06 08:50:46;;;;;;;92.93;47.90;;;14.90;99.90;;;;;;5044987;28;20064;-75
2021/06/06 08:53:18;;;;;;;89.65;48.80;;;14.90;99.90;;;;;;5053722;28;20053;-75
2021/06/06 08:56:18;;;;;;;82.47;46.25;;;15.00;99.90;;;;;;5056670;28;20110;-74
2021/06/06 08:58:55;;;;;;;85.32;46.15;;;14.90;99.90;;;;;;5059661;28;20087;-75
2021/06/06 09:01:41;;;;;;;96.25;46.95;;;15.00;99.90;;;;;;5041712;28;20049;-74
2021/06/06 09:04:18;;;;;;;99.68;47.97;;;14.90;99.90;;;;;;5030390;28;20041;-74
2021/06/06 09:06:48;;;;;;;104.93;51.78;;;15.00;99.90;;;;;;5035759;28;20111;-74
2021/06/06 09:09:26;;;;;;;98.78;52.17;;;15.10;99.90;;;;;;5032706;28;20427;-75
2021/06/06 09:12:08;;;;;;;103.53;50.95;;;15.20;99.90;;;;;;5030041;28;20191;-75
2021/06/06 09:14:35;;;;;;;88.30;48.10;;;15.20;99.90;;;;;;5033177;28;20136;-75
2021/06/06 09:17:14;;;;;;;84.53;46.28;;;15.10;99.90;;;;;;5032019;28;20079;-74
2021/06/06 09:19:54;;;;;;;74.25;44.63;;;14.80;99.90;;;;;;5040084;28;20126;-75
2021/06/06 09:22:47;;;;;;;74.05;45.25;;;14.90;99.90;;;;;;5036687;28;20064;-73
2021/06/06 09:25:26;;;;;;;70.93;42.28;;;15.00;99.90;;;;;;5022484;28;20053;-74
2021/06/06 09:28:12;;;;;;;72.65;41.90;;;15.00;99.90;;;;;;5027959;28;20053;-74
2021/06/06 09:30:41;;;;;;;68.82;40.63;;;15.00;99.90;;;;;;5030478;28;20053;-74
2021/06/06 09:33:23;;;;;;;69.63;42.15;;;15.10;99.90;;;;;;5037907;28;20491;-74
2021/06/06 09:35:57;;;;;;;62.40;39.45;;;15.10;99.90;;;;;;5040909;28;20044;-75
2021/06/06 09:38:30;;;;;;;65.88;42.80;;;15.20;99.90;;;;;;5045340;28;20060;-76
2021/06/06 09:41:35;;;;;;;58.03;37.33;;;15.30;99.90;;;;;;5029527;28;20529;-75
2021/06/06 09:44:14;;;;;;;61.47;40.35;;;15.30;99.90;;;;;;5034661;28;20546;-76
2021/06/06 09:47:00;;;;;;;58.20;37.20;;;15.40;99.90;;;;;;5042840;28;20053;-75
2021/06/06 09:49:33;;;;;;;59.30;38.58;;;15.30;99.90;;;;;;5040372;28;20674;-75
2021/06/06 09:52:17;;;;;;;63.80;40.03;;;15.30;99.90;;;;;;5039735;28;20051;-75
2021/06/06 09:54:58;;;;;;;64.35;40.38;;;15.30;99.90;;;;;;5029686;28;20569;-76
2021/06/06 09:57:33;;;;;;;62.97;40.50;;;15.30;99.90;;;;;;5036931;28;20651;-75
2021/06/06 10:00:18;;;;;;;68.77;43.03;;;15.30;99.90;;;;;;5046665;28;20064;-76
2021/06/06 10:03:16;;;;;;;65.57;42.83;;;15.50;99.90;;;;;;5041172;28;20336;-76
2021/06/06 10:05:43;;;;;;;59.15;40.45;;;15.50;99.90;;;;;;5034459;28;20049;-75
2021/06/06 10:08:28;;;;;;;66.43;43.25;;;15.60;99.90;;;;;;5036883;28;20064;-73
2021/06/06 10:11:15;;;;;;;62.00;41.00;;;15.70;99.90;;;;;;5027087;28;20080;-74
2021/06/06 10:13:49;;;;;;;53.63;37.83;;;15.70;99.90;;;;;;5032491;28;20057;-73
2021/06/06 10:16:25;;;;;;;49.92;36.47;;;15.80;99.90;;;;;;5035999;28;20045;-73
2021/06/06 10:19:02;;;;;;;44.78;33.65;;;15.70;99.90;;;;;;5041792;28;20059;-74
2021/06/06 10:21:32;;;;;;;56.13;37.90;;;15.60;99.90;;;;;;5033963;28;20084;-73
2021/06/06 10:24:18;;;;;;;48.00;35.75;;;15.60;99.90;;;;;;5037055;28;20053;-74
2021/06/06 10:27:09;;;;;;;41.40;32.15;;;15.60;99.90;;;;;;5047008;28;20099;-74
2021/06/06 10:29:59;;;;;;;52.65;35.28;;;15.50;99.90;;;;;;5032298;28;20060;-73
2021/06/06 10:32:34;;;;;;;55.15;38.05;;;15.50;99.90;;;;;;5041373;28;20055;-73
2021/06/06 10:35:17;;;;;;;56.45;38.95;;;15.50;99.90;;;;;;5038187;28;20136;-73
2021/06/06 10:37:49;;;;;;;50.90;35.75;;;15.60;99.90;;;;;;5041547;28;20287;-74
2021/06/06 10:40:37;;;;;;;44.95;33.83;;;15.60;99.90;;;;;;5025341;28;20324;-73
2021/06/06 10:43:12;;;;;;;42.75;33.00;;;15.60;99.90;;;;;;5044881;28;20107;-73
2021/06/06 10:45:47;;;;;;;46.75;33.28;;;15.60;99.90;;;;;;5054900;28;20056;-73
2021/06/06 10:48:27;;;;;;;46.13;34.40;;;15.70;99.90;;;;;;5057808;28;20317;-73
2021/06/06 10:51:12;;;;;;;50.85;35.85;;;15.60;99.90;;;;;;5055343;28;20079;-73
2021/06/06 10:53:50;;;;;;;47.80;34.97;;;15.70;99.90;;;;;;5053493;28;20067;-73
2021/06/06 10:56:48;;;;;;;57.13;39.45;;;15.60;99.90;;;;;;5059165;28;20114;-73
2021/06/06 10:59:32;;;;;;;57.78;39.67;;;15.60;99.90;;;;;;5065952;28;20056;-74
2021/06/06 11:02:00;;;;;;;50.97;36.90;;;15.70;99.90;;;;;;5037007;28;20074;-73
2021/06/06 11:04:34;;;;;;;52.85;38.50;;;15.70;99.90;;;;;;5058828;28;20127;-73
2021/06/06 11:07:19;;;;;;;54.95;38.28;;;15.70;99.90;;;;;;5045913;28;20048;-73
2021/06/06 11:10:03;;;;;;;49.15;36.05;;;15.60;99.90;;;;;;5044142;28;20076;-74
2021/06/06 11:12:34;;;;;;;51.77;37.33;;;15.70;99.90;;;;;;5044425;28;20055;-74
2021/06/06 11:15:17;;;;;;;51.42;35.70;;;15.50;99.90;;;;;;5043149;28;20057;-73
2021/06/06 11:17:44;;;;;;;46.65;34.95;;;15.50;99.90;;;;;;5040613;28;20152;-73
2021/06/06 11:20:13;;;;;;;44.30;31.85;;;15.50;99.90;;;;;;5027700;28;20073;-74
2021/06/06 11:22:43;;;;;;;41.53;31.88;;;15.50;99.90;;;;;;5054235;28;20115;-74
2021/06/06 11:25:28;;;;;;;43.80;32.97;;;15.50;99.90;;;;;;5067059;28;20660;-73
2021/06/06 11:28:01;;;;;;;43.92;31.98;;;15.40;99.90;;;;;;5045295;28;20052;-74
2021/06/06 11:30:29;;;;;;;39.53;30.15;;;15.40;99.90;;;;;;5046185;28;20056;-73
2021/06/06 11:33:03;;;;;;;38.97;30.77;;;15.50;99.90;;;;;;5049680;28;20056;-74
2021/06/06 11:35:41;;;;;;;;;;;15.50;99.90;;;;;;5054438;28;20041;-73
2021/06/06 11:38:27;;;;;;;40.92;31.25;;;15.40;99.90;;;;;;5077385;28;19981;-73
2021/06/06 11:41:34;;;;;;;39.47;30.52;;;15.40;99.90;;;;;;5064836;28;20395;-74
2021/06/06 11:44:10;;;;;;;37.72;29.70;;;15.40;99.90;;;;;;5063463;28;20056;-74
2021/06/06 11:46:55;;;;;;;40.00;30.85;;;15.50;99.90;;;;;;5053658;28;20053;-74
2021/06/06 11:49:34;;;;;;;43.33;31.98;;;15.50;99.90;;;;;;5051816;28;20115;-73
2021/06/06 11:52:12;;;;;;;43.13;32.30;;;15.50;99.90;;;;;;5024383;28;20049;-73
2021/06/06 11:54:51;;;;;;;43.15;32.83;;;15.50;99.90;;;;;;5044656;28;20053;-74
2021/06/06 11:57:50;;;;;;;48.42;34.50;;;15.60;99.90;;;;;;5054898;28;20060;-73
2021/06/06 12:00:16;;;;;;;54.78;36.92;;;15.50;99.90;;;;;;5025228;28;20106;-74
2021/06/06 12:02:43;;;;;;;58.38;39.60;;;15.50;99.90;;;;;;5034460;28;20061;-73
2021/06/06 12:05:21;;;;;;;57.90;40.08;;;15.50;99.90;;;;;;5035939;28;20049;-74
2021/06/06 12:07:50;;;;;;;59.15;40.95;;;15.50;99.90;;;;;;5039164;28;20114;-73
2021/06/06 12:10:29;;;;;;;62.47;43.03;;;15.40;99.90;;;;;;5006954;28;20049;-73
2021/06/06 12:12:59;;;;;;;52.80;37.63;;;15.40;99.90;;;;;;5039693;28;20061;-73
2021/06/06 12:15:34;;;;;;;57.60;41.53;;;15.60;99.90;;;;;;5023311;28;20125;-74
2021/06/06 12:18:09;;;;;;;;;;;15.60;99.90;;;;;;5032573;28;20053;-73
2021/06/06 12:20:52;;;;;;;59.88;40.20;;;15.60;99.90;;;;;;5042574;28;19921;-73
2021/06/06 12:23:35;;;;;;;58.28;39.47;;;15.60;99.90;;;;;;5038015;28;20124;-73
2021/06/06 12:26:23;;;;;;;56.58;38.85;;;15.50;99.90;;;;;;5022476;28;20057;-73
2021/06/06 12:28:53;;;;;;;59.15;38.85;;;15.60;99.90;;;;;;5021731;28;20469;-73
2021/06/06 12:31:40;;;;;;;56.92;38.58;;;15.60;99.90;;;;;;5034757;28;20052;-74
2021/06/06 12:34:23;;;;;;;57.67;40.28;;;15.60;99.90;;;;;;5050150;28;20665;-73
2021/06/06 12:36:57;;;;;;;58.58;40.20;;;15.70;99.90;;;;;;5018454;28;20060;-73
2021/06/06 12:39:24;;;;;;;62.47;42.00;;;15.90;99.90;;;;;;5027528;28;20050;-73
2021/06/06 12:41:54;;;;;;;57.33;41.38;;;15.90;99.90;;;;;;5021111;28;20072;-73
2021/06/06 12:44:28;;;;;;;66.63;45.85;;;16.00;99.90;;;;;;5021766;28;20455;-73
2021/06/06 12:46:59;;;;;;;74.43;46.67;;;15.90;99.90;;;;;;5034154;28;20056;-74
2021/06/06 12:49:38;;;;;;;71.88;48.22;;;15.90;99.90;;;;;;5041261;28;20102;-73
2021/06/06 12:52:21;;;;;;;69.18;46.88;;;15.90;99.90;;;;;;5036129;28;20049;-73
2021/06/06 12:54:48;;;;;;;71.25;48.72;;;15.90;99.90;;;;;;5039257;28;20259;-73